createdAt,value
2022-09-22T00:00:07.376Z,99.27
2022-09-22T00:01:07.490Z,99.63
2022-09-22T00:02:07.417Z,99.11
2022-09-22T00:03:07.353Z,99.11
2022-09-22T00:04:07.373Z,99.52
2022-09-22T00:05:07.334Z,99.11
2022-09-22T00:06:07.331Z,99.07
2022-09-22T00:07:07.312Z,98.60
2022-09-22T00:08:07.314Z,98.28
2022-09-22T00:09:07.388Z,98.70
2022-09-22T00:10:07.289Z,98.70
2022-09-22T00:11:07.294Z,98.08
2022-09-22T00:12:07.280Z,98.70
2022-09-22T00:13:07.273Z,98.18
2022-09-22T00:14:07.285Z,97.97
2022-09-22T00:15:07.259Z,98.49
2022-09-22T00:16:07.343Z,98.18
2022-09-22T00:17:07.245Z,98.28
2022-09-22T00:18:07.233Z,98.18
2022-09-22T00:19:07.235Z,98.22
2022-09-22T00:20:07.222Z,98.02
2022-09-22T00:21:07.222Z,97.81
2022-09-22T00:22:07.208Z,97.91
2022-09-22T00:23:07.204Z,98.12
2022-09-22T00:24:07.413Z,98.02
2022-09-22T00:25:07.175Z,98.54
2022-09-22T00:26:07.207Z,98.74
2022-09-22T00:27:07.164Z,98.43
2022-09-22T00:28:07.155Z,98.43
2022-09-22T00:29:07.143Z,98.74
2022-09-22T00:31:07.265Z,98.74
2022-09-22T00:32:07.705Z,99.21
2022-09-22T00:33:09.174Z,99.00
2022-09-22T00:34:08.313Z,99.21
2022-09-22T00:35:08.306Z,98.95
2022-09-22T00:36:08.297Z,98.90
2022-09-22T00:37:08.295Z,98.79
2022-09-22T00:38:08.272Z,99.47
2022-09-22T00:39:08.268Z,99.47
2022-09-22T00:40:08.323Z,99.05
2022-09-22T00:41:08.256Z,99.10
2022-09-22T00:42:08.255Z,99.00
2022-09-22T00:43:08.267Z,99.00
2022-09-22T00:44:08.270Z,98.58
2022-09-22T00:45:08.222Z,98.69
2022-09-22T00:46:08.213Z,99.31
2022-09-22T00:47:08.222Z,99.37
2022-09-22T00:48:08.207Z,99.31
2022-09-22T00:49:08.201Z,98.27
2022-09-22T00:50:08.176Z,98.90
2022-09-22T00:51:09.171Z,98.69
2022-09-22T00:52:08.181Z,98.74
2022-09-22T00:53:08.160Z,98.64
2022-09-22T00:54:08.158Z,98.38
2022-09-22T00:55:08.151Z,98.27
2022-09-22T00:56:09.113Z,98.27
2022-09-22T00:57:08.133Z,98.32
2022-09-22T00:58:08.126Z,98.38
2022-09-22T00:59:08.183Z,98.48
2022-09-22T01:00:08.129Z,98.27
2022-09-22T01:01:08.146Z,98.48
2022-09-22T01:02:08.145Z,98.17
2022-09-22T01:03:08.072Z,99.00
2022-09-22T01:04:08.082Z,99.46
2022-09-22T01:05:08.071Z,99.31
2022-09-22T01:06:08.068Z,99.72
2022-09-22T01:07:08.681Z,99.46
2022-09-22T01:08:08.038Z,99.10
2022-09-22T01:09:08.028Z,99.52
2022-09-22T01:10:08.042Z,99.41
2022-09-22T01:11:08.010Z,99.66
2022-09-22T01:12:08.027Z,99.72
2022-09-22T01:13:08.015Z,99.62
2022-09-22T01:14:08.046Z,99.31
2022-09-22T01:15:07.987Z,99.21
2022-09-22T01:16:08.033Z,99.87
2022-09-22T01:17:07.964Z,99.98
2022-09-22T01:18:07.966Z,99.41
2022-09-22T01:19:07.949Z,99.62
2022-09-22T01:20:07.934Z,99.87
2022-09-22T01:21:07.941Z,99.72
2022-09-22T01:22:07.930Z,99.21
2022-09-22T01:23:07.927Z,98.63
2022-09-22T01:24:07.905Z,99.04
2022-09-22T01:25:07.917Z,99.15
2022-09-22T01:26:07.901Z,99.15
2022-09-22T01:27:07.892Z,99.04
2022-09-22T01:28:08.679Z,98.63
2022-09-22T01:29:07.881Z,98.52
2022-09-22T01:30:07.876Z,98.73
2022-09-22T01:31:07.886Z,98.73
2022-09-22T01:32:07.848Z,99.25
2022-09-22T01:33:07.895Z,99.51
2022-09-22T01:34:07.831Z,99.35
2022-09-22T01:35:07.822Z,99.56
2022-09-22T01:36:07.821Z,99.56
2022-09-22T01:37:07.808Z,99.56
2022-09-22T01:38:07.794Z,99.56
2022-09-22T01:39:08.795Z,99.56
2022-09-22T01:40:07.857Z,99.35
2022-09-22T01:41:07.770Z,99.04
2022-09-22T01:42:07.776Z,98.63
2022-09-22T01:43:07.751Z,98.94
2022-09-22T01:44:07.756Z,98.68
2022-09-22T01:45:07.745Z,98.88
2022-09-22T01:46:07.808Z,98.94
2022-09-22T01:47:07.736Z,99.30
2022-09-22T01:48:07.717Z,99.30
2022-09-22T01:49:07.718Z,98.78
2022-09-22T01:50:07.708Z,98.16
2022-09-22T01:51:07.722Z,98.68
2022-09-22T01:52:07.695Z,99.61
2022-09-22T01:53:07.678Z,98.78
2022-09-22T01:54:07.679Z,98.99
2022-09-22T01:55:07.669Z,99.19
2022-09-22T01:56:07.661Z,98.88
2022-09-22T01:57:07.638Z,98.88
2022-09-22T01:58:07.632Z,99.30
2022-09-22T01:59:07.625Z,99.30
2022-09-22T02:00:07.620Z,98.88
2022-09-22T02:01:10.967Z,98.16
2022-09-22T02:02:09.747Z,98.47
2022-09-22T02:03:07.599Z,98.88
2022-09-22T02:04:07.581Z,98.57
2022-09-22T02:05:07.577Z,98.72
2022-09-22T02:06:07.584Z,98.88
2022-09-22T02:07:07.573Z,99.09
2022-09-22T02:08:08.194Z,99.03
2022-09-22T02:09:07.681Z,98.99
2022-09-22T02:10:07.562Z,98.72
2022-09-22T02:11:07.546Z,98.72
2022-09-22T02:12:07.525Z,99.13
2022-09-22T02:13:07.532Z,99.13
2022-09-22T02:14:07.516Z,98.82
2022-09-22T02:15:07.496Z,98.51
2022-09-22T02:16:07.553Z,98.41
2022-09-22T02:17:07.519Z,99.03
2022-09-22T02:18:07.484Z,99.44
2022-09-22T02:19:12.953Z,99.34
2022-09-22T02:20:09.466Z,99.65
2022-09-22T02:21:07.462Z,99.44
2022-09-22T02:22:07.454Z,99.44
2022-09-22T02:23:07.442Z,99.55
2022-09-22T02:24:07.586Z,99.99
2022-09-22T02:25:07.443Z,99.99
2022-09-22T02:26:07.412Z,99.99
2022-09-22T02:27:07.409Z,99.99
2022-09-22T02:28:07.407Z,99.99
2022-09-22T02:29:07.413Z,99.99
2022-09-22T02:30:07.397Z,99.99
2022-09-22T02:31:21.752Z,99.99
2022-09-22T02:32:09.437Z,99.99
2022-09-22T02:33:07.360Z,99.99
2022-09-22T02:34:07.356Z,99.99
2022-09-22T02:35:07.357Z,99.99
2022-09-22T02:36:07.337Z,99.99
2022-09-22T02:37:07.340Z,99.99
2022-09-22T02:38:07.326Z,99.99
2022-09-22T02:39:07.760Z,99.99
2022-09-22T02:40:07.357Z,99.99
2022-09-22T02:41:07.305Z,99.99
2022-09-22T02:42:07.307Z,99.99
2022-09-22T02:43:07.296Z,99.99
2022-09-22T02:44:07.283Z,99.99
2022-09-22T02:45:07.707Z,99.99
2022-09-22T02:46:07.316Z,99.99
2022-09-22T02:47:07.303Z,99.99
2022-09-22T02:48:07.301Z,99.99
2022-09-22T02:49:08.201Z,99.99
2022-09-22T02:50:07.246Z,99.99
2022-09-22T02:51:07.214Z,99.99
2022-09-22T02:52:07.209Z,99.99
2022-09-22T02:53:07.201Z,99.99
2022-09-22T02:54:07.257Z,99.99
2022-09-22T02:55:07.200Z,99.99
2022-09-22T02:56:07.176Z,99.99
2022-09-22T02:57:07.176Z,99.88
2022-09-22T02:58:07.162Z,99.99
2022-09-22T02:59:07.150Z,99.99
2022-09-22T03:00:07.151Z,99.99
2022-09-22T03:01:07.175Z,99.99
2022-09-22T03:02:07.130Z,99.99
2022-09-22T03:03:07.123Z,99.99
2022-09-22T03:04:07.112Z,99.99
2022-09-22T03:05:07.161Z,99.99
2022-09-22T03:06:07.092Z,99.99
2022-09-22T03:07:07.098Z,99.88
2022-09-22T03:08:07.074Z,99.99
2022-09-22T03:09:07.240Z,99.99
2022-09-22T03:10:07.065Z,99.99
2022-09-22T03:11:07.050Z,99.99
2022-09-22T03:12:07.050Z,99.99
2022-09-22T03:13:16.396Z,99.78
2022-09-22T03:14:09.063Z,99.99
2022-09-22T03:15:07.031Z,99.99
2022-09-22T03:16:07.067Z,99.99
2022-09-22T03:17:07.006Z,99.99
2022-09-22T03:18:06.992Z,99.99
2022-09-22T03:19:06.987Z,99.99
2022-09-22T03:20:06.992Z,99.99
2022-09-22T03:21:06.981Z,99.99
2022-09-22T03:22:06.972Z,99.99
2022-09-22T03:23:06.971Z,99.99
2022-09-22T03:24:07.075Z,99.99
2022-09-22T03:25:06.951Z,99.88
2022-09-22T03:26:07.699Z,99.88
2022-09-22T03:27:06.936Z,99.68
2022-09-22T03:28:06.929Z,99.73
2022-09-22T03:29:06.916Z,99.99
2022-09-22T03:30:06.902Z,99.99
2022-09-22T03:31:06.983Z,99.57
2022-09-22T03:32:06.895Z,99.99
2022-09-22T03:33:07.711Z,99.99
2022-09-22T03:34:06.876Z,99.99
2022-09-22T03:35:06.873Z,99.78
2022-09-22T03:36:06.856Z,99.99
2022-09-22T03:37:07.109Z,99.99
2022-09-22T03:38:54.754Z,99.94
2022-09-22T03:39:54.714Z,99.99
2022-09-22T03:40:54.704Z,99.99
2022-09-22T03:41:54.708Z,99.99
2022-09-22T03:42:54.701Z,99.99
2022-09-22T03:43:54.683Z,99.99
2022-09-22T03:44:54.682Z,99.99
2022-09-22T03:45:54.705Z,99.99
2022-09-22T03:46:54.662Z,99.99
2022-09-22T03:47:54.660Z,99.99
2022-09-22T03:48:54.642Z,99.99
2022-09-22T03:49:54.634Z,99.99
2022-09-22T03:50:55.722Z,99.99
2022-09-22T03:51:55.723Z,99.99
2022-09-22T03:52:55.705Z,99.99
2022-09-22T03:53:55.701Z,99.99
2022-09-22T03:54:55.697Z,99.90
2022-09-22T03:55:55.680Z,99.99
2022-09-22T03:56:55.713Z,99.99
2022-09-22T03:57:55.651Z,99.73
2022-09-22T03:58:56.659Z,99.73
2022-09-22T03:59:55.636Z,99.22
2022-09-22T04:00:56.707Z,99.99
2022-09-22T04:01:58.359Z,99.84
2022-09-22T04:02:56.618Z,99.84
2022-09-22T04:03:55.674Z,99.63
2022-09-22T04:04:55.605Z,99.32
2022-09-22T04:05:55.624Z,99.63
2022-09-22T04:06:55.590Z,99.99
2022-09-22T04:07:55.592Z,99.99
2022-09-22T04:08:55.581Z,99.99
2022-09-22T04:09:55.567Z,99.99
2022-09-22T04:10:55.564Z,99.48
2022-09-22T04:11:55.552Z,99.99
2022-09-22T04:12:55.544Z,99.99
2022-09-22T04:13:55.545Z,99.99
2022-09-22T04:14:55.526Z,99.94
2022-09-22T04:15:55.519Z,99.94
2022-09-22T04:16:55.574Z,99.43
2022-09-22T04:17:55.505Z,99.43
2022-09-22T04:18:55.502Z,99.73
2022-09-22T04:19:55.494Z,99.94
2022-09-22T04:20:55.482Z,99.94
2022-09-22T04:21:57.360Z,99.73
2022-09-22T04:22:56.494Z,99.94
2022-09-22T04:23:55.482Z,99.11
2022-09-22T04:24:55.523Z,99.27
2022-09-22T04:25:55.449Z,99.52
2022-09-22T04:27:19.127Z,99.32
2022-09-22T04:27:57.424Z,99.11
2022-09-22T04:28:55.439Z,99.63
2022-09-22T04:29:55.435Z,99.52
2022-09-22T04:30:55.463Z,99.38
2022-09-22T04:31:55.397Z,98.86
2022-09-22T04:32:55.383Z,99.27
2022-09-22T04:33:55.388Z,99.17
2022-09-22T04:34:55.384Z,99.32
2022-09-22T04:35:55.359Z,99.27
2022-09-22T04:36:55.360Z,99.48
2022-09-22T04:37:55.359Z,99.38
2022-09-22T04:38:55.341Z,99.38
2022-09-22T04:39:55.348Z,99.27
2022-09-22T04:40:55.337Z,98.44
2022-09-22T04:41:55.326Z,98.49
2022-09-22T04:42:55.313Z,98.60
2022-09-22T04:43:55.310Z,98.55
2022-09-22T04:44:55.306Z,99.11
2022-09-22T04:45:55.371Z,99.38
2022-09-22T04:46:55.282Z,99.52
2022-09-22T04:47:55.271Z,99.27
2022-09-22T04:48:55.259Z,99.69
2022-09-22T04:49:55.259Z,99.27
2022-09-22T04:50:55.269Z,99.48
2022-09-22T04:51:55.241Z,99.48
2022-09-22T04:52:55.240Z,99.38
2022-09-22T04:53:55.227Z,99.58
2022-09-22T04:54:55.249Z,99.58
2022-09-22T04:55:55.215Z,99.27
2022-09-22T04:56:55.205Z,99.27
2022-09-22T04:57:55.197Z,99.69
2022-09-22T04:58:55.187Z,99.23
2022-09-22T04:59:55.165Z,99.54
2022-09-22T05:00:55.212Z,99.13
2022-09-22T05:01:55.152Z,99.43
2022-09-22T05:02:55.199Z,99.43
2022-09-22T05:03:55.134Z,98.44
2022-09-22T05:04:55.126Z,98.30
2022-09-22T05:05:55.132Z,97.88
2022-09-22T05:06:55.134Z,98.82
2022-09-22T05:07:56.096Z,98.61
2022-09-22T05:08:55.096Z,98.71
2022-09-22T05:09:55.089Z,98.50
2022-09-22T05:10:55.086Z,97.47
2022-09-22T05:11:55.070Z,97.26
2022-09-22T05:12:55.070Z,98.13
2022-09-22T05:13:55.062Z,98.24
2022-09-22T05:14:55.059Z,97.62
2022-09-22T05:15:55.046Z,97.41
2022-09-22T05:16:55.092Z,97.31
2022-09-22T05:17:55.035Z,97.72
2022-09-22T05:18:55.014Z,98.13
2022-09-22T05:19:55.020Z,97.93
2022-09-22T05:20:55.100Z,97.72
2022-09-22T05:21:55.032Z,97.72
2022-09-22T05:22:54.986Z,97.72
2022-09-22T05:23:54.983Z,97.87
2022-09-22T05:24:54.968Z,97.77
2022-09-22T05:25:54.957Z,98.28
2022-09-22T05:26:54.983Z,97.97
2022-09-22T05:27:54.929Z,98.70
2022-09-22T05:28:55.958Z,98.60
2022-09-22T05:29:54.927Z,99.11
2022-09-22T05:30:54.928Z,98.75
2022-09-22T05:31:54.976Z,98.65
2022-09-22T05:32:54.899Z,98.39
2022-09-22T05:33:54.898Z,98.95
2022-09-22T05:34:54.900Z,99.57
2022-09-22T05:35:54.899Z,99.47
2022-09-22T05:36:54.870Z,99.05
2022-09-22T05:37:54.874Z,99.16
2022-09-22T05:38:54.862Z,99.78
2022-09-22T05:39:54.851Z,99.99
2022-09-22T05:40:54.850Z,99.68
2022-09-22T05:41:54.841Z,99.78
2022-09-22T05:42:54.831Z,99.57
2022-09-22T05:43:54.826Z,99.57
2022-09-22T05:44:54.823Z,99.99
2022-09-22T05:45:54.847Z,99.47
2022-09-22T05:46:54.828Z,99.99
2022-09-22T05:47:54.805Z,99.88
2022-09-22T05:48:54.778Z,99.99
2022-09-22T05:49:54.811Z,99.68
2022-09-22T05:50:54.761Z,99.37
2022-09-22T05:51:54.764Z,99.78
2022-09-22T05:52:54.750Z,99.78
2022-09-22T05:53:54.761Z,99.78
2022-09-22T05:54:54.732Z,99.43
2022-09-22T05:55:54.722Z,99.43
2022-09-22T05:56:54.717Z,99.43
2022-09-22T05:57:54.725Z,99.43
2022-09-22T05:58:54.713Z,99.52
2022-09-22T05:59:54.771Z,99.43
2022-09-22T06:00:54.757Z,99.52
2022-09-22T06:01:59.359Z,99.07
2022-09-22T06:02:56.737Z,99.27
2022-09-22T06:03:54.671Z,98.40
2022-09-22T06:04:54.645Z,98.50
2022-09-22T06:05:54.657Z,98.09
2022-09-22T06:06:54.649Z,97.57
2022-09-22T06:07:54.628Z,97.67
2022-09-22T06:08:54.743Z,97.11
2022-09-22T06:09:54.708Z,97.11
2022-09-22T06:10:54.626Z,96.59
2022-09-22T06:12:28.130Z,97.07
2022-09-22T06:12:54.585Z,96.34
2022-09-22T06:13:54.591Z,96.03
2022-09-22T06:14:54.566Z,95.62
2022-09-22T06:15:54.556Z,95.62
2022-09-22T06:16:55.561Z,95.31
2022-09-22T06:17:54.541Z,95.21
2022-09-22T06:18:54.539Z,95.27
2022-09-22T06:19:54.529Z,95.31
2022-09-22T06:20:54.524Z,95.06
2022-09-22T06:21:55.221Z,95.00
2022-09-22T06:22:55.139Z,95.31
2022-09-22T06:23:54.500Z,94.65
2022-09-22T06:24:54.512Z,94.34
2022-09-22T06:25:54.498Z,94.65
2022-09-22T06:26:54.747Z,94.96
2022-09-22T06:27:54.476Z,94.13
2022-09-22T06:28:54.525Z,93.62
2022-09-22T06:29:54.459Z,94.19
2022-09-22T06:30:54.447Z,94.09
2022-09-22T06:31:54.480Z,93.37
2022-09-22T06:32:55.436Z,93.57
2022-09-22T06:33:54.428Z,93.78
2022-09-22T06:34:54.418Z,93.01
2022-09-22T06:35:54.411Z,92.85
2022-09-22T06:36:54.420Z,93.01
2022-09-22T06:37:54.389Z,92.91
2022-09-22T06:38:54.397Z,93.05
2022-09-22T06:39:54.375Z,93.01
2022-09-22T06:40:54.441Z,92.91
2022-09-22T06:41:54.365Z,92.76
2022-09-22T06:42:54.371Z,92.66
2022-09-22T06:43:54.353Z,92.14
2022-09-22T06:44:54.355Z,92.31
2022-09-22T06:45:54.392Z,91.52
2022-09-22T06:46:54.315Z,91.32
2022-09-22T06:47:55.133Z,91.07
2022-09-22T06:48:54.298Z,91.17
2022-09-22T06:49:54.290Z,90.66
2022-09-22T06:50:54.304Z,90.55
2022-09-22T06:51:54.278Z,90.04
2022-09-22T06:52:54.263Z,90.45
2022-09-22T06:53:54.258Z,89.89
2022-09-22T06:54:54.256Z,89.58
2022-09-22T06:55:54.572Z,89.58
2022-09-22T06:56:54.241Z,89.17
2022-09-22T06:57:54.224Z,88.86
2022-09-22T06:59:09.406Z,88.76
2022-09-22T06:59:56.210Z,88.56
2022-09-22T07:00:54.447Z,88.31
2022-09-22T07:01:54.322Z,88.41
2022-09-22T07:02:54.193Z,88.37
2022-09-22T07:03:54.175Z,87.65
2022-09-22T07:04:54.166Z,87.75
2022-09-22T07:05:54.160Z,87.34
2022-09-22T07:06:54.152Z,87.03
2022-09-22T07:07:54.153Z,86.93
2022-09-22T07:08:54.135Z,87.65
2022-09-22T07:09:54.141Z,87.69
2022-09-22T07:10:54.117Z,88.41
2022-09-22T07:11:54.109Z,88.17
2022-09-22T07:12:54.111Z,88.37
2022-09-22T07:13:54.097Z,88.62
2022-09-22T07:14:54.077Z,88.76
2022-09-22T07:15:54.121Z,89.73
2022-09-22T07:16:54.063Z,90.14
2022-09-22T07:17:54.063Z,90.55
2022-09-22T07:18:54.057Z,91.17
2022-09-22T07:19:54.079Z,90.51
2022-09-22T07:20:54.046Z,89.69
2022-09-22T07:21:54.037Z,89.28
2022-09-22T07:22:54.030Z,89.13
2022-09-22T07:23:54.012Z,88.82
2022-09-22T07:24:53.995Z,89.38
2022-09-22T07:25:53.985Z,89.28
2022-09-22T07:26:53.986Z,89.03
2022-09-22T07:27:53.972Z,88.57
2022-09-22T07:28:53.974Z,88.57
2022-09-22T07:29:53.962Z,87.85
2022-09-22T07:30:53.963Z,88.37
2022-09-22T07:31:54.018Z,88.26
2022-09-22T07:32:53.929Z,88.68
2022-09-22T07:33:54.644Z,88.78
2022-09-22T07:34:53.913Z,87.54
2022-09-22T07:35:53.935Z,86.95
2022-09-22T07:36:53.903Z,86.43
2022-09-22T07:37:53.884Z,86.43
2022-09-22T07:38:53.877Z,86.47
2022-09-22T07:39:53.882Z,86.23
2022-09-22T07:40:53.863Z,86.54
2022-09-22T07:41:53.861Z,85.41
2022-09-22T07:42:53.846Z,86.50
2022-09-22T07:43:53.837Z,86.19
2022-09-22T07:44:53.839Z,86.19
2022-09-22T07:45:53.830Z,85.63
2022-09-22T07:46:53.873Z,85.26
2022-09-22T07:47:53.817Z,85.43
2022-09-22T07:48:53.798Z,85.22
2022-09-22T07:49:53.798Z,84.50
2022-09-22T07:50:53.787Z,84.88
2022-09-22T07:51:53.786Z,83.85
2022-09-22T07:52:53.773Z,84.56
2022-09-22T07:53:53.764Z,84.47
2022-09-22T07:54:53.759Z,83.40
2022-09-22T07:55:53.799Z,83.29
2022-09-22T07:56:53.737Z,83.29
2022-09-22T07:57:53.732Z,82.95
2022-09-22T07:58:53.726Z,82.40
2022-09-22T07:59:53.703Z,81.95
2022-09-22T08:00:54.744Z,82.23
2022-09-22T08:01:53.776Z,82.54
2022-09-22T08:02:53.703Z,82.84
2022-09-22T08:03:53.676Z,83.05
2022-09-22T08:04:53.673Z,82.75
2022-09-22T08:05:54.796Z,82.95
2022-09-22T08:06:53.652Z,83.05
2022-09-22T08:07:53.653Z,82.95
2022-09-22T08:08:53.656Z,83.09
2022-09-22T08:09:53.667Z,82.84
2022-09-22T08:10:53.624Z,82.29
2022-09-22T08:11:53.716Z,82.19
2022-09-22T08:12:53.609Z,82.09
2022-09-22T08:13:53.600Z,81.54
2022-09-22T08:14:53.597Z,81.64
2022-09-22T08:15:53.627Z,80.58
2022-09-22T08:16:54.011Z,80.27
2022-09-22T08:17:53.569Z,80.17
2022-09-22T08:18:53.563Z,79.66
2022-09-22T08:19:53.568Z,79.86
2022-09-22T08:20:53.543Z,81.34
2022-09-22T08:21:53.571Z,80.99
2022-09-22T08:22:53.534Z,80.23
2022-09-22T08:23:53.521Z,79.41
2022-09-22T08:24:53.516Z,78.56
2022-09-22T08:25:53.506Z,78.93
2022-09-22T08:26:53.495Z,78.21
2022-09-22T08:27:53.482Z,76.57
2022-09-22T08:28:53.686Z,76.78
2022-09-22T08:29:53.474Z,76.84
2022-09-22T08:30:54.235Z,76.54
2022-09-22T08:31:53.501Z,75.89
2022-09-22T08:32:53.442Z,76.09
2022-09-22T08:33:53.444Z,76.30
2022-09-22T08:34:53.430Z,76.30
2022-09-22T08:35:53.425Z,76.61
2022-09-22T08:36:54.164Z,76.30
2022-09-22T08:37:53.431Z,76.88
2022-09-22T08:38:53.397Z,76.67
2022-09-22T08:39:54.240Z,76.26
2022-09-22T08:40:53.414Z,75.85
2022-09-22T08:41:53.370Z,75.31
2022-09-22T08:42:54.435Z,75.41
2022-09-22T08:43:53.357Z,75.24
2022-09-22T08:44:53.354Z,76.67
2022-09-22T08:45:53.362Z,76.81
2022-09-22T08:46:53.405Z,76.71
2022-09-22T08:47:53.325Z,77.36
2022-09-22T08:48:53.331Z,77.97
2022-09-22T08:49:53.312Z,78.01
2022-09-22T08:50:53.305Z,78.83
2022-09-22T08:51:53.289Z,77.91
2022-09-22T08:52:53.285Z,79.03
2022-09-22T08:53:53.273Z,79.44
2022-09-22T08:54:53.267Z,79.89
2022-09-22T08:56:59.542Z,80.60
2022-09-22T08:57:59.547Z,81.01
2022-09-22T08:59:00.624Z,81.01
2022-09-22T09:00:00.645Z,81.01
2022-09-22T09:01:00.621Z,81.22
2022-09-22T09:02:00.670Z,81.12
2022-09-22T09:03:00.624Z,81.22
2022-09-22T09:04:00.669Z,81.01
2022-09-22T09:05:00.661Z,80.91
2022-09-22T09:06:00.563Z,80.51
2022-09-22T09:07:00.622Z,80.81
2022-09-22T09:08:00.577Z,80.91
2022-09-22T09:09:04.786Z,80.40
2022-09-22T09:10:01.605Z,80.77
2022-09-22T09:11:00.519Z,81.08
2022-09-22T09:12:00.527Z,80.57
2022-09-22T09:13:00.547Z,80.33
2022-09-22T09:14:00.602Z,80.53
2022-09-22T09:15:00.488Z,80.33
2022-09-22T09:16:00.563Z,80.60
2022-09-22T09:17:00.477Z,79.88
2022-09-22T09:18:00.472Z,78.86
2022-09-22T09:19:00.467Z,79.68
2022-09-22T09:20:00.453Z,79.02
2022-09-22T09:21:00.447Z,79.23
2022-09-22T09:22:00.455Z,79.13
2022-09-22T09:23:00.479Z,79.19
2022-09-22T09:26:02.408Z,78.13
2022-09-22T09:27:00.393Z,78.38
2022-09-22T09:28:00.422Z,77.72
2022-09-22T09:29:05.891Z,77.72
2022-09-22T09:30:02.386Z,77.42
2022-09-22T09:31:00.393Z,77.11
2022-09-22T09:32:00.918Z,76.56
2022-09-22T09:33:00.354Z,76.97
2022-09-22T09:34:00.346Z,76.67
2022-09-22T09:35:00.418Z,76.46
2022-09-22T09:36:00.917Z,76.97
2022-09-22T09:37:00.330Z,76.93
2022-09-22T09:38:00.309Z,76.32
2022-09-22T09:39:00.348Z,76.32
2022-09-22T09:40:00.298Z,76.50
2022-09-22T09:41:00.312Z,75.68
2022-09-22T09:42:00.273Z,75.78
2022-09-22T09:43:01.666Z,75.37
2022-09-22T09:44:00.270Z,75.03
2022-09-22T09:45:00.260Z,74.83
2022-09-22T09:46:00.337Z,75.13
2022-09-22T09:47:00.232Z,74.49
2022-09-22T09:48:00.237Z,74.90
2022-09-22T09:49:00.246Z,74.49
2022-09-22T09:50:00.250Z,74.65
2022-09-22T09:51:00.226Z,74.25
2022-09-22T09:52:00.196Z,74.04
2022-09-22T09:53:00.202Z,73.64
2022-09-22T09:54:00.181Z,73.74
2022-09-22T09:55:00.207Z,73.43
2022-09-22T09:56:00.182Z,73.64
2022-09-22T09:57:00.162Z,73.60
2022-09-22T09:58:00.146Z,72.69
2022-09-22T09:59:00.266Z,73.19
2022-09-22T10:00:00.627Z,72.89
2022-09-22T10:01:00.123Z,72.78
2022-09-22T10:02:00.226Z,72.55
2022-09-22T10:03:02.997Z,71.73
2022-09-22T10:04:00.219Z,71.94
2022-09-22T10:05:00.093Z,71.50
2022-09-22T10:06:00.079Z,71.60
2022-09-22T10:07:01.551Z,71.30
2022-09-22T10:08:01.154Z,70.65
2022-09-22T10:09:00.114Z,70.96
2022-09-22T10:10:00.191Z,70.55
2022-09-22T10:11:00.064Z,70.75
2022-09-22T10:12:00.038Z,69.91
2022-09-22T10:13:00.064Z,68.89
2022-09-22T10:14:00.015Z,67.88
2022-09-22T10:15:00.018Z,67.47
2022-09-22T10:16:00.028Z,67.97
2022-09-22T10:17:00.009Z,68.05
2022-09-22T10:18:00.004Z,67.44
2022-09-22T10:18:59.976Z,67.24
2022-09-22T10:19:59.973Z,68.01
2022-09-22T10:20:59.966Z,67.00
2022-09-22T10:21:59.971Z,67.61
2022-09-22T10:22:59.964Z,68.12
2022-09-22T10:23:59.970Z,67.58
2022-09-22T10:24:59.930Z,66.66
2022-09-22T10:25:59.919Z,65.34
2022-09-22T10:27:02.535Z,64.00
2022-09-22T10:28:00.909Z,63.18
2022-09-22T10:28:59.890Z,64.30
2022-09-22T10:29:59.886Z,64.10
2022-09-22T10:30:59.933Z,62.88
2022-09-22T10:31:59.900Z,62.14
2022-09-22T10:32:59.860Z,62.75
2022-09-22T10:33:59.853Z,62.04
2022-09-22T10:34:59.855Z,61.30
2022-09-22T10:35:59.837Z,60.69
2022-09-22T10:36:59.867Z,59.17
2022-09-22T10:37:59.827Z,59.27
2022-09-22T10:39:00.213Z,59.05
2022-09-22T10:39:59.803Z,58.13
2022-09-22T10:40:59.793Z,59.14
2022-09-22T10:41:59.792Z,59.34
2022-09-22T10:42:59.774Z,59.14
2022-09-22T10:44:03.115Z,58.34
2022-09-22T10:45:01.763Z,58.81
2022-09-22T10:45:59.764Z,58.44
2022-09-22T10:46:59.748Z,58.11
2022-09-22T10:47:59.748Z,58.71
2022-09-22T10:49:00.553Z,57.67
2022-09-22T10:49:59.724Z,57.70
2022-09-22T10:50:59.707Z,58.28
2022-09-22T10:51:59.706Z,58.07
2022-09-22T10:52:59.727Z,57.60
2022-09-22T10:53:59.707Z,57.78
2022-09-22T10:54:59.700Z,57.87
2022-09-22T10:55:59.668Z,57.04
2022-09-22T10:56:59.671Z,56.33
2022-09-22T10:57:59.666Z,56.33
2022-09-22T10:58:59.672Z,57.11
2022-09-22T10:59:59.640Z,56.43
2022-09-22T11:01:01.059Z,57.14
2022-09-22T11:01:59.884Z,57.65
2022-09-22T11:02:59.644Z,57.85
2022-09-22T11:03:59.865Z,57.54
2022-09-22T11:04:59.660Z,57.92
2022-09-22T11:05:59.617Z,56.20
2022-09-22T11:06:59.572Z,56.10
2022-09-22T11:07:59.581Z,56.20
2022-09-22T11:08:59.607Z,55.19
2022-09-22T11:09:59.552Z,55.62
2022-09-22T11:10:59.563Z,55.19
2022-09-22T11:11:59.540Z,55.09
2022-09-22T11:12:59.527Z,55.29
2022-09-22T11:13:59.670Z,55.29
2022-09-22T11:14:59.533Z,55.60
2022-09-22T11:15:59.548Z,54.89
2022-09-22T11:16:59.521Z,55.07
2022-09-22T11:17:59.492Z,54.96
2022-09-22T11:18:59.485Z,55.09
2022-09-22T11:19:59.491Z,55.27
2022-09-22T11:20:59.482Z,54.96
2022-09-22T11:21:59.470Z,54.96
2022-09-22T11:22:59.453Z,55.07
2022-09-22T11:23:59.438Z,54.33
2022-09-22T11:24:59.439Z,53.93
2022-09-22T11:25:59.478Z,53.83
2022-09-22T11:26:59.428Z,54.23
2022-09-22T11:27:59.419Z,54.00
2022-09-22T11:28:59.402Z,54.83
2022-09-22T11:29:59.413Z,54.00
2022-09-22T11:30:59.482Z,53.09
2022-09-22T11:31:59.406Z,53.27
2022-09-22T11:32:59.426Z,51.96
2022-09-22T11:33:59.361Z,51.64
2022-09-22T11:34:59.363Z,50.42
2022-09-22T11:35:59.348Z,50.22
2022-09-22T11:36:59.341Z,50.42
2022-09-22T11:37:59.339Z,50.32
2022-09-22T11:38:59.328Z,50.93
2022-09-22T11:39:59.307Z,51.03
2022-09-22T11:41:00.432Z,51.93
2022-09-22T11:41:59.295Z,51.20
2022-09-22T11:43:02.143Z,51.31
2022-09-22T11:44:00.361Z,51.40
2022-09-22T11:44:59.274Z,51.20
2022-09-22T11:45:59.288Z,50.90
2022-09-22T11:47:00.254Z,50.50
2022-09-22T11:47:59.248Z,50.80
2022-09-22T11:48:59.232Z,50.20
2022-09-22T11:49:59.235Z,50.80
2022-09-22T11:50:59.213Z,51.28
2022-09-22T11:51:59.213Z,51.48
2022-09-22T11:52:59.198Z,51.48
2022-09-22T11:53:59.286Z,50.88
2022-09-22T11:55:01.114Z,50.98
2022-09-22T11:56:00.180Z,51.08
2022-09-22T11:56:59.162Z,51.08
2022-09-22T11:57:59.164Z,51.06
2022-09-22T11:58:59.170Z,51.48
2022-09-22T11:59:59.141Z,50.65
2022-09-22T12:00:59.149Z,51.48
2022-09-22T12:01:59.177Z,50.88
2022-09-22T12:03:02.033Z,50.88
2022-09-22T12:04:00.124Z,51.08
2022-09-22T12:04:59.106Z,50.45
2022-09-22T12:05:59.108Z,50.45
2022-09-22T12:06:59.095Z,50.13
2022-09-22T12:07:59.079Z,50.43
2022-09-22T12:08:59.086Z,49.02
2022-09-22T12:09:59.065Z,48.49
2022-09-22T12:10:59.057Z,48.59
2022-09-22T12:11:59.968Z,48.90
2022-09-22T12:13:00.539Z,48.49
2022-09-22T12:13:59.080Z,48.82
2022-09-22T12:14:59.049Z,48.34
2022-09-22T12:15:59.204Z,48.61
2022-09-22T12:16:59.003Z,49.27
2022-09-22T12:17:59.012Z,50.45
2022-09-22T12:19:00.065Z,50.25
2022-09-22T12:19:59.030Z,49.75
2022-09-22T12:20:58.981Z,49.52
2022-09-22T12:21:58.981Z,49.82
2022-09-22T12:22:58.963Z,49.02
2022-09-22T12:23:59.026Z,48.79
2022-09-22T12:24:59.559Z,48.61
2022-09-22T12:25:58.937Z,48.21
2022-09-22T12:26:58.935Z,48.52
2022-09-22T12:27:58.955Z,49.52
2022-09-22T12:28:58.916Z,50.23
2022-09-22T12:29:58.903Z,48.52
2022-09-22T12:30:59.045Z,49.15
2022-09-22T12:31:58.908Z,48.24
2022-09-22T12:32:58.874Z,48.74
2022-09-22T12:33:58.950Z,48.84
2022-09-22T12:34:58.864Z,48.84
2022-09-22T12:35:58.855Z,48.92
2022-09-22T12:36:58.855Z,48.82
2022-09-22T12:37:58.834Z,48.72
2022-09-22T12:38:58.840Z,48.72
2022-09-22T12:39:58.820Z,48.72
2022-09-22T12:40:58.811Z,48.74
2022-09-22T12:41:58.814Z,48.86
2022-09-22T12:42:58.802Z,49.35
2022-09-22T12:43:58.790Z,48.76
2022-09-22T12:44:58.787Z,48.44
2022-09-22T12:45:58.826Z,48.94
2022-09-22T12:46:58.773Z,49.04
2022-09-22T12:47:59.476Z,48.74
2022-09-22T12:48:58.797Z,48.64
2022-09-22T12:49:59.767Z,48.72
2022-09-22T12:50:58.766Z,47.81
2022-09-22T12:51:59.182Z,48.72
2022-09-22T12:52:58.731Z,48.52
2022-09-22T12:53:59.711Z,49.42
2022-09-22T12:54:58.804Z,48.01
2022-09-22T12:55:59.475Z,48.03
2022-09-22T12:56:58.725Z,48.34